createdAt,value
2023-01-25T00:02:04.712Z,-1.25
2023-01-25T00:04:33.890Z,-1.22
2023-01-25T00:07:03.287Z,-1.20
2023-01-25T00:09:31.875Z,-1.22
2023-01-25T00:12:02.199Z,-1.24
2023-01-25T00:14:32.011Z,-1.24
2023-01-25T00:17:00.650Z,-1.23
2023-01-25T00:19:30.198Z,-1.21
2023-01-25T00:21:59.406Z,-1.20
2023-01-25T00:24:29.416Z,-1.18
2023-01-25T00:26:58.722Z,-1.18
2023-01-25T00:29:27.608Z,-1.19
2023-01-25T00:32:10.411Z,-1.24
2023-01-25T00:34:49.454Z,-1.28
2023-01-25T00:37:21.927Z,-1.28
2023-01-25T00:39:50.818Z,-1.24
2023-01-25T00:42:20.243Z,-1.21
2023-01-25T00:44:49.655Z,-1.19
2023-01-25T00:47:18.098Z,-1.20
2023-01-25T00:49:47.119Z,-1.24
2023-01-25T00:52:16.085Z,-1.30
2023-01-25T00:54:46.625Z,-1.34
2023-01-25T00:57:15.745Z,-1.34
2023-01-25T00:59:44.935Z,-1.32
2023-01-25T01:02:15.741Z,-1.28
2023-01-25T01:04:44.556Z,-1.24
2023-01-25T01:07:14.775Z,-1.23
2023-01-25T01:09:43.443Z,-1.27
2023-01-25T01:12:12.431Z,-1.30
2023-01-25T01:14:41.268Z,-1.37
2023-01-25T01:17:09.917Z,-1.42
2023-01-25T01:19:38.893Z,-1.42
2023-01-25T01:22:07.685Z,-1.39
2023-01-25T01:24:36.991Z,-1.36
2023-01-25T01:27:05.567Z,-1.34
2023-01-25T01:29:34.727Z,-1.35
2023-01-25T01:32:04.265Z,-1.39
2023-01-25T01:34:33.359Z,-1.42
2023-01-25T01:37:02.149Z,-1.42
2023-01-25T01:39:31.177Z,-1.39
2023-01-25T01:41:59.943Z,-1.35
2023-01-25T01:44:46.951Z,-1.31
2023-01-25T01:47:32.948Z,-1.28
2023-01-25T01:50:06.131Z,-1.32
2023-01-25T01:52:36.766Z,-1.38
2023-01-25T01:55:06.830Z,-1.41
2023-01-25T01:57:37.415Z,-1.43
2023-01-25T02:00:07.634Z,-1.42
2023-01-25T02:02:43.114Z,-1.39
2023-01-25T02:05:17.652Z,-1.34
2023-01-25T02:07:47.614Z,-1.33
2023-01-25T02:10:16.297Z,-1.34
2023-01-25T02:12:46.110Z,-1.38
2023-01-25T02:15:14.940Z,-1.41
2023-01-25T02:17:44.201Z,-1.42
2023-01-25T02:20:22.303Z,-1.40
2023-01-25T02:23:01.100Z,-1.34
2023-01-25T02:25:29.920Z,-1.30
2023-01-25T02:28:05.248Z,-1.29
2023-01-25T02:30:35.901Z,-1.33
2023-01-25T02:33:04.684Z,-1.38
2023-01-25T02:35:52.194Z,-1.41
2023-01-25T02:38:21.607Z,-1.41
2023-01-25T02:41:02.713Z,-1.38
2023-01-25T02:43:32.837Z,-1.35
2023-01-25T02:46:23.841Z,-1.34
2023-01-25T02:48:52.400Z,-1.33
2023-01-25T02:51:25.195Z,-1.36
2023-01-25T02:53:54.062Z,-1.38
2023-01-25T02:56:23.062Z,-1.39
2023-01-25T02:58:51.851Z,-1.37
2023-01-25T03:01:21.154Z,-1.34
2023-01-25T03:03:50.041Z,-1.32
2023-01-25T03:06:19.031Z,-1.31
2023-01-25T03:08:48.022Z,-1.33
2023-01-25T03:11:16.512Z,-1.34
2023-01-25T03:13:49.391Z,-1.35
2023-01-25T03:16:18.034Z,-1.34
2023-01-25T03:18:47.023Z,-1.33
2023-01-25T03:21:17.815Z,-1.34
2023-01-25T03:23:47.785Z,-1.34
2023-01-25T03:26:21.966Z,-1.36
2023-01-25T03:29:03.717Z,-1.39
2023-01-25T03:31:33.089Z,-1.40
2023-01-25T03:34:02.525Z,-1.40
2023-01-25T03:36:35.611Z,-1.35
2023-01-25T03:39:05.122Z,-1.32
2023-01-25T03:41:39.333Z,-1.32
2023-01-25T03:44:11.813Z,-1.32
2023-01-25T03:46:41.171Z,-1.33
2023-01-25T03:49:09.916Z,-1.36
2023-01-25T03:51:38.589Z,-1.34
2023-01-25T03:54:10.479Z,-1.29
2023-01-25T03:56:38.922Z,-1.25
2023-01-25T03:59:12.549Z,-1.24
2023-01-25T04:01:41.409Z,-1.24
2023-01-25T04:04:09.908Z,-1.25
2023-01-25T04:06:40.022Z,-1.26
2023-01-25T04:09:08.804Z,-1.24
2023-01-25T04:11:41.581Z,-1.19
2023-01-25T04:14:11.778Z,-1.15
2023-01-25T04:16:47.949Z,-1.15
2023-01-25T04:19:39.689Z,-1.20
2023-01-25T04:22:13.201Z,-1.29
2023-01-25T04:24:41.876Z,-1.38
2023-01-25T04:27:10.504Z,-1.43
2023-01-25T04:29:47.953Z,-1.49
2023-01-25T04:32:20.128Z,-1.59
2023-01-25T04:34:49.007Z,-1.65
2023-01-25T04:37:19.533Z,-1.60
2023-01-25T04:40:09.419Z,-1.56
2023-01-25T04:42:42.713Z,-1.58
2023-01-25T04:45:12.083Z,-1.55
2023-01-25T04:47:40.607Z,-1.45
2023-01-25T04:50:10.305Z,-1.38
2023-01-25T04:52:39.323Z,-1.41
2023-01-25T04:55:09.066Z,-1.42
2023-01-25T04:57:41.993Z,-1.41
2023-01-25T05:00:12.012Z,-1.43
2023-01-25T05:02:40.611Z,-1.45
2023-01-25T05:05:10.136Z,-1.46
2023-01-25T05:07:39.294Z,-1.48
2023-01-25T05:10:09.005Z,-1.51
2023-01-25T05:12:41.888Z,-1.55
2023-01-25T05:15:11.719Z,-1.60
2023-01-25T05:17:40.719Z,-1.66
2023-01-25T05:20:11.231Z,-1.71
2023-01-25T05:23:36.738Z,-1.74
2023-01-25T05:26:42.696Z,-1.77
2023-01-25T05:29:11.906Z,-1.79
2023-01-25T05:31:47.570Z,-1.81
2023-01-25T05:34:16.434Z,-1.84
2023-01-25T05:36:44.913Z,-1.85
2023-01-25T05:39:13.701Z,-1.84
2023-01-25T05:41:42.439Z,-1.81
2023-01-25T05:44:11.484Z,-1.79
2023-01-25T05:46:43.958Z,-1.76
2023-01-25T05:49:12.745Z,-1.73
2023-01-25T05:51:41.844Z,-1.71
2023-01-25T05:54:16.160Z,-1.69
2023-01-25T05:56:50.683Z,-1.66
2023-01-25T05:59:20.185Z,-1.62
2023-01-25T06:01:49.075Z,-1.59
2023-01-25T06:04:18.613Z,-1.58
2023-01-25T06:06:47.776Z,-1.58
2023-01-25T06:09:16.468Z,-1.60
2023-01-25T06:11:47.321Z,-1.56
2023-01-25T06:14:16.108Z,-1.51
2023-01-25T06:16:44.982Z,-1.45
2023-01-25T06:19:25.953Z,-1.40
2023-01-25T06:22:33.035Z,-1.38
2023-01-25T06:25:01.639Z,-1.36
2023-01-25T06:27:30.451Z,-1.31
2023-01-25T06:29:59.542Z,-1.24
2023-01-25T06:32:32.739Z,-1.17
2023-01-25T06:35:01.485Z,-1.09
2023-01-25T06:37:30.374Z,-1.05
2023-01-25T06:39:58.975Z,-1.01
2023-01-25T06:42:27.641Z,-0.90
2023-01-25T06:44:56.223Z,-0.49
2023-01-25T06:47:25.121Z,0.04
2023-01-25T06:49:53.698Z,0.42
2023-01-25T06:52:22.693Z,0.74
2023-01-25T06:54:51.285Z,1.07
2023-01-25T06:57:21.188Z,1.49
2023-01-25T06:59:51.220Z,1.92
2023-01-25T07:02:20.544Z,2.37
2023-01-25T07:04:54.722Z,2.89
2023-01-25T07:07:23.403Z,3.25
2023-01-25T07:09:51.889Z,3.34
2023-01-25T07:12:20.776Z,3.34
2023-01-25T07:14:50.084Z,3.28
2023-01-25T07:17:19.583Z,3.15
2023-01-25T07:19:48.486Z,3.03
2023-01-25T07:22:18.285Z,3.21
2023-01-25T07:24:51.119Z,3.58
2023-01-25T07:27:20.572Z,3.98
2023-01-25T07:29:49.581Z,4.20
2023-01-25T07:32:18.785Z,4.32
2023-01-25T07:34:47.450Z,4.40
2023-01-25T07:37:16.809Z,4.43
2023-01-25T07:39:49.975Z,4.43
2023-01-25T07:42:18.944Z,4.31
2023-01-25T07:45:09.317Z,4.42
2023-01-25T07:47:38.224Z,4.47
2023-01-25T07:50:10.146Z,4.43
2023-01-25T07:52:38.871Z,4.30
2023-01-25T07:55:09.207Z,4.13
2023-01-25T07:57:37.903Z,3.98
2023-01-25T08:00:10.252Z,3.78
2023-01-25T08:02:43.133Z,3.59
2023-01-25T08:05:12.073Z,3.41
2023-01-25T08:07:41.117Z,3.25
2023-01-25T08:10:13.090Z,3.12
2023-01-25T08:12:46.587Z,2.96
2023-01-25T08:15:17.109Z,2.81
2023-01-25T08:17:45.825Z,2.72
2023-01-25T08:20:14.887Z,2.63
2023-01-25T08:22:47.078Z,2.53
2023-01-25T08:25:16.258Z,2.43
2023-01-25T08:27:48.625Z,2.37
2023-01-25T08:30:19.465Z,2.31
2023-01-25T08:32:48.349Z,2.21
2023-01-25T08:35:20.340Z,2.14
2023-01-25T08:37:49.522Z,2.07
2023-01-25T08:40:19.528Z,2.10
2023-01-25T08:42:49.361Z,2.12
2023-01-25T08:45:20.213Z,2.13
2023-01-25T08:47:48.867Z,2.13
2023-01-25T08:50:18.487Z,2.13
2023-01-25T08:52:47.768Z,2.12
2023-01-25T08:55:16.967Z,2.07
2023-01-25T08:57:49.595Z,2.01
2023-01-25T09:00:20.585Z,1.95
2023-01-25T09:02:49.783Z,1.91
2023-01-25T09:05:18.591Z,1.87
2023-01-25T09:07:48.466Z,1.81
2023-01-25T09:10:18.318Z,1.77
2023-01-25T09:12:47.290Z,1.75
2023-01-25T09:15:18.535Z,1.77
2023-01-25T09:17:48.046Z,1.85
2023-01-25T09:20:19.081Z,1.91
2023-01-25T09:22:47.973Z,1.94
2023-01-25T09:25:16.867Z,1.96
2023-01-25T09:27:45.672Z,1.95
2023-01-25T09:30:23.477Z,1.95
2023-01-25T09:33:01.468Z,1.95
2023-01-25T09:35:31.578Z,1.93
2023-01-25T09:38:00.061Z,1.89
2023-01-25T09:40:34.372Z,1.86
2023-01-25T09:43:22.061Z,1.82
2023-01-25T09:45:51.505Z,1.79
2023-01-25T09:48:29.203Z,1.75
2023-01-25T09:51:23.759Z,1.74
2023-01-25T09:53:53.692Z,1.73
2023-01-25T09:56:33.360Z,1.77
2023-01-25T09:59:12.902Z,1.79
2023-01-25T10:01:51.961Z,1.81
2023-01-25T14:12:46.643Z,0.42
2023-01-25T14:15:29.411Z,0.38
2023-01-25T14:18:20.501Z,0.42
2023-01-25T14:20:50.693Z,0.52
2023-01-25T14:23:26.094Z,0.61
2023-01-25T14:25:59.450Z,0.69
2023-01-25T14:28:29.612Z,0.75
2023-01-25T14:30:59.401Z,0.77
2023-01-25T14:33:32.801Z,0.76
2023-01-25T14:36:24.001Z,0.72
2023-01-25T14:38:54.195Z,0.68
2023-01-25T14:41:26.080Z,0.68
2023-01-25T14:43:56.588Z,0.70
2023-01-25T14:46:32.201Z,0.72
2023-01-25T14:49:27.656Z,0.74
2023-01-25T14:52:05.887Z,0.72
2023-01-25T14:54:36.733Z,0.69
2023-01-25T14:57:07.219Z,0.62
2023-01-25T14:59:42.718Z,0.56
2023-01-25T15:02:28.475Z,0.51
2023-01-25T15:05:21.825Z,0.49
2023-01-25T15:08:26.354Z,0.50
2023-01-25T15:10:57.908Z,0.53
2023-01-25T15:13:27.605Z,0.53
2023-01-25T15:16:01.713Z,0.49
2023-01-25T15:18:43.403Z,0.43
2023-01-25T15:21:14.267Z,0.36
2023-01-25T15:23:45.306Z,0.31
2023-01-25T15:26:29.972Z,0.30
2023-01-25T15:29:00.889Z,0.32
2023-01-25T15:31:34.855Z,0.34
2023-01-25T15:34:06.329Z,0.34
2023-01-25T15:36:37.383Z,0.31
2023-01-25T15:39:07.495Z,0.26
2023-01-25T15:41:37.002Z,0.20
2023-01-25T15:44:06.006Z,0.11
2023-01-25T15:46:35.016Z,0.02
2023-01-25T15:49:08.010Z,-0.02
2023-01-25T15:51:37.801Z,-0.01
2023-01-25T15:54:08.120Z,0.03
2023-01-25T15:56:38.254Z,0.04
2023-01-25T15:59:11.842Z,0.04
2023-01-25T16:01:40.628Z,-0.01
2023-01-25T16:04:18.367Z,-0.07
2023-01-25T16:06:50.331Z,-0.13
2023-01-25T16:09:29.722Z,-0.17
2023-01-25T16:12:00.354Z,-0.20
2023-01-25T16:14:33.125Z,-0.23
2023-01-25T16:17:04.436Z,-0.26
2023-01-25T16:19:33.660Z,-0.29
2023-01-25T16:22:06.657Z,-0.37
2023-01-25T16:24:39.398Z,-0.44
2023-01-25T16:27:17.142Z,-0.51
2023-01-25T16:29:46.047Z,-0.53
2023-01-25T16:32:15.033Z,-0.50
2023-01-25T16:34:44.395Z,-0.47
2023-01-25T16:37:17.238Z,-0.44
2023-01-25T16:39:46.402Z,-0.46
2023-01-25T16:42:16.941Z,-0.47
2023-01-25T16:44:47.696Z,-0.52
2023-01-25T16:47:16.352Z,-0.60
2023-01-25T16:49:45.960Z,-0.62
2023-01-25T16:52:15.666Z,-0.61
2023-01-25T16:54:45.406Z,-0.64
2023-01-25T16:57:20.242Z,-0.62
2023-01-25T16:59:49.511Z,-0.61
2023-01-25T17:02:19.735Z,-0.65
2023-01-25T17:04:51.852Z,-0.74
2023-01-25T17:07:21.097Z,-0.84
2023-01-25T17:09:50.494Z,-0.88
2023-01-25T17:12:28.762Z,-0.88
2023-01-25T17:15:12.656Z,-0.92
2023-01-25T17:17:42.068Z,-0.96
2023-01-25T17:20:12.262Z,-0.99
2023-01-25T17:22:42.298Z,-0.98
2023-01-25T17:25:11.473Z,-1.00
2023-01-25T17:27:43.251Z,-1.04
2023-01-25T17:30:13.925Z,-1.07
2023-01-25T17:32:46.962Z,-1.11
2023-01-25T17:35:19.035Z,-1.11
2023-01-25T17:37:47.807Z,-1.10
2023-01-25T17:40:18.548Z,-1.11
2023-01-25T17:42:47.548Z,-1.14
2023-01-25T17:45:17.768Z,-1.16
2023-01-25T17:47:50.219Z,-1.19
2023-01-25T17:50:20.061Z,-1.16
2023-01-25T17:52:51.419Z,-1.14
2023-01-25T17:55:20.444Z,-1.14
2023-01-25T17:57:51.665Z,-1.17
2023-01-25T18:00:21.756Z,-1.23
2023-01-25T18:02:52.144Z,-1.31
2023-01-25T18:05:21.090Z,-1.34
2023-01-25T18:07:51.552Z,-1.32
2023-01-25T18:10:20.459Z,-1.29
2023-01-25T18:13:03.982Z,-1.27
2023-01-25T18:15:36.293Z,-1.32
2023-01-25T18:18:07.455Z,-1.39
2023-01-25T18:20:38.486Z,-1.48
2023-01-25T18:23:07.493Z,-1.58
2023-01-25T18:25:38.114Z,-1.63
2023-01-25T18:28:07.712Z,-1.65
2023-01-25T18:30:44.496Z,-1.64
2023-01-25T18:33:13.288Z,-1.65
2023-01-25T18:35:46.421Z,-1.67
2023-01-25T18:38:15.890Z,-1.72
2023-01-25T18:40:44.611Z,-1.77
2023-01-25T18:43:17.128Z,-1.80
2023-01-25T18:45:46.641Z,-1.78
2023-01-25T18:48:20.144Z,-1.73
2023-01-25T18:50:49.047Z,-1.70
2023-01-25T18:53:18.037Z,-1.73
2023-01-25T18:56:05.644Z,-1.79
2023-01-25T18:58:37.194Z,-1.87
2023-01-25T19:01:20.187Z,-1.88
2023-01-25T19:03:50.338Z,-1.87
2023-01-25T19:06:20.984Z,-1.81
2023-01-25T19:08:54.882Z,-1.80
2023-01-25T19:11:23.875Z,-1.83
2023-01-25T19:13:54.809Z,-1.87
2023-01-25T19:16:26.431Z,-1.89
2023-01-25T19:18:55.847Z,-1.88
2023-01-25T19:21:27.563Z,-1.85
2023-01-25T19:23:57.947Z,-1.85
2023-01-25T19:26:27.760Z,-1.90
2023-01-25T19:28:56.901Z,-1.92
2023-01-25T19:31:27.915Z,-1.98
2023-01-25T19:34:01.079Z,-1.96
2023-01-25T19:36:33.880Z,-1.91
2023-01-25T19:39:03.427Z,-1.88
2023-01-25T19:41:34.314Z,-1.83
2023-01-25T19:44:05.163Z,-1.88
2023-01-25T19:46:36.195Z,-1.97
2023-01-25T19:49:09.616Z,-2.04
2023-01-25T19:51:43.172Z,-2.09
2023-01-25T19:54:18.698Z,-2.14
2023-01-25T19:56:49.599Z,-2.18
2023-01-25T19:59:23.639Z,-2.18
2023-01-25T20:01:53.886Z,-2.19
2023-01-25T20:04:23.712Z,-2.21
2023-01-25T20:06:52.926Z,-2.24
2023-01-25T20:09:25.192Z,-2.25
2023-01-25T20:11:55.892Z,-2.16
2023-01-25T20:14:25.635Z,-2.12
2023-01-25T20:16:54.522Z,-2.21
2023-01-25T20:19:24.889Z,-2.22
2023-01-25T20:21:53.523Z,-2.24
2023-01-25T20:24:23.968Z,-2.31
2023-01-25T20:26:52.895Z,-2.37
2023-01-25T20:29:22.555Z,-2.34
2023-01-25T20:31:53.907Z,-2.26
2023-01-25T20:34:23.210Z,-2.19
2023-01-25T20:36:51.988Z,-2.16
2023-01-25T20:39:21.589Z,-2.17
2023-01-25T20:41:53.823Z,-2.19
2023-01-25T20:44:23.365Z,-2.20
2023-01-25T20:46:55.425Z,-2.19
2023-01-25T20:49:24.075Z,-2.14
2023-01-25T20:51:52.808Z,-2.12
2023-01-25T20:54:23.269Z,-2.13
2023-01-25T20:56:53.766Z,-2.19
2023-01-25T20:59:22.369Z,-2.21
2023-01-25T21:09:43.913Z,-2.11
2023-01-25T21:12:12.497Z,-2.16
2023-01-25T21:14:41.506Z,-2.17
2023-01-25T21:17:11.709Z,-2.17
2023-01-25T21:19:40.190Z,-2.13
2023-01-25T21:22:08.867Z,-2.10
2023-01-25T21:24:38.217Z,-2.12
2023-01-25T21:27:08.435Z,-2.13
2023-01-25T21:29:37.239Z,-2.15
2023-01-25T21:32:06.403Z,-2.12
2023-01-25T21:34:35.497Z,-2.08
2023-01-25T21:37:04.073Z,-2.18
2023-01-25T21:39:35.440Z,-2.30
2023-01-25T21:42:04.652Z,-2.39
2023-01-25T21:44:52.041Z,-2.46
2023-01-25T21:47:29.986Z,-2.47
2023-01-25T21:50:18.811Z,-2.46
2023-01-25T21:52:47.478Z,-2.43
2023-01-25T21:55:16.059Z,-2.37
2023-01-25T21:57:47.511Z,-2.35
2023-01-25T22:00:17.192Z,-2.37
2023-01-25T22:02:46.151Z,-2.36
2023-01-25T22:05:15.002Z,-2.34
2023-01-25T22:07:43.945Z,-2.30
2023-01-25T22:10:12.818Z,-2.28
2023-01-25T22:12:42.238Z,-2.30
2023-01-25T22:15:12.198Z,-2.33
2023-01-25T22:17:41.396Z,-2.34
2023-01-25T22:20:11.358Z,-2.35
2023-01-25T22:22:40.117Z,-2.36
2023-01-25T22:25:09.504Z,-2.36
2023-01-25T22:27:46.199Z,-2.39
2023-01-25T22:30:14.860Z,-2.42
2023-01-25T22:32:46.399Z,-2.43
2023-01-25T22:35:17.440Z,-2.40
2023-01-25T22:37:46.056Z,-2.36
2023-01-25T22:40:14.839Z,-2.34
2023-01-25T22:42:44.596Z,-2.37
2023-01-25T22:45:13.645Z,-2.41
2023-01-25T22:47:47.028Z,-2.45
2023-01-25T22:50:19.515Z,-2.49
2023-01-25T22:52:49.341Z,-2.55
2023-01-25T22:55:18.109Z,-2.69
2023-01-25T22:57:48.624Z,-2.82
2023-01-25T23:00:20.804Z,-2.93
2023-01-25T23:02:51.438Z,-2.94
2023-01-25T23:05:20.428Z,-2.96
2023-01-25T23:07:49.104Z,-2.97
2023-01-25T23:10:22.396Z,-2.95
2023-01-25T23:12:52.937Z,-2.98
2023-01-25T23:15:21.714Z,-2.97
2023-01-25T23:18:09.396Z,-2.94
2023-01-25T23:20:38.275Z,-2.86
2023-01-25T23:23:07.160Z,-2.78
2023-01-25T23:25:37.652Z,-2.75
2023-01-25T23:28:07.285Z,-2.76
2023-01-25T23:30:36.359Z,-2.81
2023-01-25T23:33:05.051Z,-2.86
2023-01-25T23:35:34.346Z,-2.90
2023-01-25T23:38:03.332Z,-2.97
2023-01-25T23:40:33.208Z,-2.97
2023-01-25T23:43:04.616Z,-2.92
2023-01-25T23:45:35.333Z,-2.91
2023-01-25T23:48:05.174Z,-2.95
2023-01-25T23:50:36.193Z,-2.90
2023-01-25T23:53:06.403Z,-2.81
2023-01-25T23:55:37.545Z,-2.77
2023-01-25T23:58:06.847Z,-2.80
